Time;durP1;ratioP1;P1;durP2;ratioP2;P2;SDS_P1;SDS_P2;PMS_P1;PMS_P2;Temp;Humidity;BMP_temperature;BMP_pressure;BME280_temperature;BME280_humidity;BME280_pressure;Samples;Min_cycle;Max_cycle;Signal;HPM_P1;HPM_P2
2023/10/18 00:02:16;;;;;;;5.63;4.60;;;;;;;;;;5019861;28;20225;-79
2023/10/18 00:04:46;;;;;;;5.10;4.10;;;;;;;;;;4997756;28;20191;-80
2023/10/18 00:07:13;;;;;;;5.73;4.60;;;;;;;;;;4990045;28;20191;-79
2023/10/18 00:09:46;;;;;;;7.53;4.60;;;;;;;;;;5015024;28;20558;-79
2023/10/18 00:12:16;;;;;;;5.10;4.13;;;;;;;;;;5018994;28;20202;-82
2023/10/18 00:14:46;;;;;;;4.63;4.10;;;;;;;;;;4999507;28;20202;-81
2023/10/18 00:17:13;;;;;;;7.07;4.53;;;;;;;;;;5003876;28;20225;-79
2023/10/18 00:19:40;;;;;;;6.10;3.90;;;;;;;;;;5022347;28;20281;-80
2023/10/18 00:22:09;;;;;;;6.63;4.10;;;;;;;;;;5027056;28;20576;-80
2023/10/18 00:24:35;;;;;;;4.53;4.07;;;;;;;;;;5009196;28;20391;-80
2023/10/18 00:27:03;;;;;;;4.73;3.80;;;;;;;;;;5028540;28;20191;-80
2023/10/18 00:29:31;;;;;;;5.50;3.80;;;;;;;;;;4990571;28;20217;-79
2023/10/18 00:31:59;;;;;;;4.30;3.73;;;;;;;;;;5011065;28;20237;-79
2023/10/18 00:34:28;;;;;;;4.57;4.00;;;;;;;;;;5009089;28;20201;-80
2023/10/18 00:36:55;;;;;;;9.23;4.63;;;;;;;;;;5009328;28;20269;-79
2023/10/18 00:39:27;;;;;;;7.17;4.97;;;;;;;;;;5002093;28;20225;-79
2023/10/18 00:41:54;;;;;;;6.90;5.03;;;;;;;;;;4997947;28;20698;-80
2023/10/18 00:44:23;;;;;;;6.10;4.50;;;;;;;;;;5000248;28;20194;-79
2023/10/18 00:46:53;;;;;;;7.93;4.70;;;;;;;;;;4999378;28;20628;-80
2023/10/18 00:49:20;;;;;;;7.17;5.17;;;;;;;;;;5003572;28;20244;-79
2023/10/18 00:51:47;;;;;;;10.10;6.00;;;;;;;;;;5002927;28;20333;-79
2023/10/18 00:54:14;;;;;;;6.13;5.07;;;;;;;;;;4971988;28;20186;-79
2023/10/18 00:56:44;;;;;;;8.00;4.63;;;;;;;;;;5005170;28;20190;-80
2023/10/18 00:59:22;;;;;;;12.10;6.20;;;;;;;;;;5017799;28;20190;-79
2023/10/18 01:02:05;;;;;;;7.33;5.60;;;;;;;;;;5001147;28;20222;-79
2023/10/18 01:04:34;;;;;;;6.97;5.10;;;;;;;;;;4990025;28;20198;-80
2023/10/18 01:07:11;;;;;;;7.93;4.97;;;;;;;;;;4996866;28;20218;-80
2023/10/18 01:09:43;;;;;;;7.17;5.07;;;;;;;;;;5020502;28;20210;-80
2023/10/18 01:12:09;;;;;;;6.97;4.80;;;;;;;;;;5003707;28;20644;-80
2023/10/18 01:14:36;;;;;;;5.87;4.70;;;;;;;;;;5019535;28;20195;-80
2023/10/18 01:17:06;;;;;;;6.83;5.17;;;;;;;;;;5003788;28;20210;-79
2023/10/18 01:19:33;;;;;;;6.80;4.97;;;;;;;;;;4988529;28;20191;-79
2023/10/18 01:21:59;;;;;;;7.77;5.23;;;;;;;;;;4980892;28;20211;-81
2023/10/18 01:24:30;;;;;;;8.87;5.50;;;;;;;;;;5009885;28;20741;-80
2023/10/18 01:26:57;;;;;;;7.13;5.30;;;;;;;;;;5024877;28;20323;-80
2023/10/18 01:29:23;;;;;;;6.93;5.23;;;;;;;;;;5010725;28;20214;-79
2023/10/18 01:31:49;;;;;;;8.20;5.63;;;;;;;;;;5008143;28;20218;-80
2023/10/18 01:34:16;;;;;;;8.90;6.30;;;;;;;;;;5027622;28;20205;-81
2023/10/18 01:36:42;;;;;;;7.93;6.50;;;;;;;;;;5003461;28;20196;-81
2023/10/18 01:39:18;;;;;;;8.27;5.83;;;;;;;;;;5009442;28;20610;-80
2023/10/18 01:41:45;;;;;;;8.17;6.17;;;;;;;;;;4993313;28;20186;-81
2023/10/18 01:44:17;;;;;;;7.17;6.37;;;;;;;;;;5011330;28;20202;-80
2023/10/18 01:46:52;;;;;;;7.87;7.07;;;;;;;;;;4986527;28;20203;-80
2023/10/18 01:49:23;;;;;;;11.17;7.40;;;;;;;;;;5000168;28;20218;-79
2023/10/18 01:51:51;;;;;;;9.00;7.53;;;;;;;;;;5019855;28;20759;-79
2023/10/18 01:54:25;;;;;;;11.33;8.40;;;;;;;;;;5028151;28;20198;-80
2023/10/18 01:56:57;;;;;;;11.57;7.90;;;;;;;;;;5029600;28;20194;-80
2023/10/18 01:59:27;;;;;;;10.47;8.13;;;;;;;;;;5001257;28;20187;-80
2023/10/18 02:01:54;;;;;;;10.27;8.27;;;;;;;;;;5005654;28;20210;-80
2023/10/18 02:04:27;;;;;;;8.60;7.33;;;;;;;;;;5007495;28;20201;-79
2023/10/18 02:06:57;;;;;;;9.60;7.40;;;;;;;;;;4997849;28;20690;-80
2023/10/18 02:09:23;;;;;;;8.03;7.10;;;;;;;;;;4999924;28;20260;-79
2023/10/18 02:11:49;;;;;;;10.40;7.47;;;;;;;;;;5006388;28;20529;-79
2023/10/18 02:14:16;;;;;;;9.70;7.57;;;;;;;;;;5010569;28;20186;-79
2023/10/18 02:16:45;;;;;;;9.07;7.87;;;;;;;;;;5003440;28;20186;-79
2023/10/18 02:19:13;;;;;;;9.60;7.80;;;;;;;;;;5007157;28;20194;-79
2023/10/18 02:21:41;;;;;;;8.87;7.47;;;;;;;;;;5019746;28;20186;-79
2023/10/18 02:24:11;;;;;;;9.33;7.50;;;;;;;;;;5006332;28;20187;-79
2023/10/18 02:26:44;;;;;;;10.80;7.90;;;;;;;;;;5005526;28;20183;-79
2023/10/18 02:29:13;;;;;;;9.40;8.13;;;;;;;;;;5024875;28;20701;-79
2023/10/18 02:31:42;;;;;;;11.43;9.03;;;;;;;;;;5021302;28;20550;-79
2023/10/18 02:34:09;;;;;;;11.13;8.40;;;;;;;;;;5008329;28;20176;-79
2023/10/18 02:36:38;;;;;;;10.03;8.03;;;;;;;;;;5012447;28;20816;-79
2023/10/18 02:39:08;;;;;;;8.80;7.40;;;;;;;;;;5011759;28;20214;-80
2023/10/18 02:41:37;;;;;;;10.97;8.30;;;;;;;;;;5011954;28;20269;-79
2023/10/18 02:44:11;;;;;;;9.13;7.60;;;;;;;;;;5023642;28;20199;-79
2023/10/18 02:46:37;;;;;;;10.13;8.27;;;;;;;;;;5020437;28;20277;-79
2023/10/18 02:49:07;;;;;;;12.00;8.30;;;;;;;;;;5028388;28;20218;-79
2023/10/18 02:51:35;;;;;;;10.07;8.23;;;;;;;;;;5009657;28;20551;-79
2023/10/18 02:56:42;;;;;;;11.00;9.03;;;;;;;;;;5012869;28;20243;-80
2023/10/18 02:59:08;;;;;;;10.47;8.90;;;;;;;;;;5020371;28;20187;-80
2023/10/18 03:01:42;;;;;;;11.47;9.00;;;;;;;;;;5004415;28;20182;-79
2023/10/18 03:04:11;;;;;;;11.43;8.57;;;;;;;;;;5018610;28;20912;-79
2023/10/18 03:06:38;;;;;;;10.57;8.63;;;;;;;;;;5019839;28;20276;-79
2023/10/18 03:11:53;;;;;;;11.13;8.87;;;;;;;;;;5010526;28;20207;-79
2023/10/18 03:14:23;;;;;;;10.03;8.30;;;;;;;;;;4985613;28;20209;-79
2023/10/18 03:16:49;;;;;;;11.70;9.23;;;;;;;;;;4995372;28;20191;-80
2023/10/18 03:19:18;;;;;;;9.63;8.30;;;;;;;;;;5016568;28;20190;-79
2023/10/18 03:21:50;;;;;;;11.60;9.30;;;;;;;;;;4998822;28;20195;-79
2023/10/18 03:24:21;;;;;;;11.37;8.73;;;;;;;;;;5010939;28;20273;-79
2023/10/18 03:26:47;;;;;;;11.60;8.33;;;;;;;;;;5004438;28;20179;-79
2023/10/18 03:29:15;;;;;;;10.63;8.47;;;;;;;;;;4964614;28;20242;-79
2023/10/18 03:31:43;;;;;;;11.43;8.83;;;;;;;;;;5015455;28;20270;-80
2023/10/18 03:34:16;;;;;;;11.00;8.93;;;;;;;;;;4988297;28;20195;-79
2023/10/18 03:36:49;;;;;;;11.03;9.00;;;;;;;;;;5003767;28;20179;-79
2023/10/18 03:39:15;;;;;;;12.40;9.93;;;;;;;;;;5023169;28;20273;-80
2023/10/18 03:41:46;;;;;;;11.73;9.53;;;;;;;;;;5006451;28;20195;-79
2023/10/18 03:44:20;;;;;;;13.03;10.43;;;;;;;;;;4982473;28;20216;-79
2023/10/18 03:46:47;;;;;;;13.47;10.63;;;;;;;;;;4986096;28;20252;-79
2023/10/18 03:51:56;;;;;;;15.00;11.03;;;;;;;;;;4998177;28;20680;-80
2023/10/18 03:54:23;;;;;;;12.87;10.57;;;;;;;;;;5005232;28;20288;-79
2023/10/18 03:56:53;;;;;;;12.77;10.43;;;;;;;;;;5015996;28;20183;-80
2023/10/18 03:59:23;;;;;;;14.03;10.57;;;;;;;;;;5013759;28;20647;-79
2023/10/18 04:02:07;;;;;;;13.47;10.47;;;;;;;;;;4994078;28;20207;-79
2023/10/18 04:04:35;;;;;;;14.47;11.33;;;;;;;;;;5011453;28;20272;-79
2023/10/18 04:07:12;;;;;;;13.20;11.27;;;;;;;;;;4995940;28;20202;-79
2023/10/18 04:09:39;;;;;;;13.57;11.00;;;;;;;;;;5016867;28;20218;-79
2023/10/18 04:12:07;;;;;;;14.77;11.63;;;;;;;;;;4975999;28;20206;-80
2023/10/18 04:14:34;;;;;;;15.57;11.33;;;;;;;;;;5000852;28;20279;-79
2023/10/18 04:17:08;;;;;;;13.13;10.90;;;;;;;;;;5018083;28;20171;-80
2023/10/18 04:19:35;;;;;;;10.63;9.40;;;;;;;;;;5005150;28;20242;-80
2023/10/18 04:22:05;;;;;;;15.40;10.47;;;;;;;;;;5011013;28;20233;-80
2023/10/18 04:24:32;;;;;;;12.17;9.90;;;;;;;;;;4996332;28;20191;-80
2023/10/18 04:27:02;;;;;;;16.53;10.60;;;;;;;;;;5009256;28;20184;-80
2023/10/18 04:29:33;;;;;;;14.07;10.87;;;;;;;;;;5016515;28;20261;-79
2023/10/18 04:32:03;;;;;;;12.97;10.27;;;;;;;;;;5014952;28;20199;-80
2023/10/18 04:34:33;;;;;;;12.17;10.03;;;;;;;;;;5012476;28;20219;-80
2023/10/18 04:37:00;;;;;;;11.90;10.03;;;;;;;;;;4999563;28;20186;-79
2023/10/18 04:39:27;;;;;;;11.53;9.80;;;;;;;;;;5018074;28;20194;-80
2023/10/18 04:41:53;;;;;;;13.53;10.57;;;;;;;;;;5011244;28;20225;-79
2023/10/18 04:44:23;;;;;;;14.73;11.70;;;;;;;;;;4989491;28;20207;-80
2023/10/18 04:46:52;;;;;;;12.33;10.27;;;;;;;;;;4991314;28;20265;-79
2023/10/18 04:49:38;;;;;;;11.90;9.83;;;;;;;;;;4997014;28;20233;-79
2023/10/18 04:52:05;;;;;;;12.60;10.07;;;;;;;;;;4992204;28;20198;-79
2023/10/18 04:54:41;;;;;;;12.47;10.63;;;;;;;;;;5014278;28;20198;-79
2023/10/18 04:57:11;;;;;;;14.17;10.43;;;;;;;;;;4993663;28;20178;-79
2023/10/18 04:59:45;;;;;;;11.43;9.83;;;;;;;;;;5021011;28;20249;-79
2023/10/18 05:02:17;;;;;;;11.90;9.33;;;;;;;;;;4995648;28;20290;-80
2023/10/18 05:04:47;;;;;;;12.73;9.30;;;;;;;;;;5016926;28;20267;-80
2023/10/18 05:09:42;;;;;;;14.70;10.90;;;;;;;;;;5015640;28;20298;-79
2023/10/18 05:14:43;;;;;;;13.27;10.20;;;;;;;;;;5015387;28;20274;-79
2023/10/18 05:17:23;;;;;;;13.63;11.47;;;;;;;;;;5009160;28;20176;-80
2023/10/18 05:19:49;;;;;;;14.00;11.57;;;;;;;;;;5014215;28;20257;-79
2023/10/18 05:22:25;;;;;;;14.37;12.07;;;;;;;;;;4995792;28;20867;-79
2023/10/18 05:27:45;;;;;;;13.40;10.57;;;;;;;;;;5002023;28;20786;-79
2023/10/18 05:30:15;;;;;;;13.20;10.70;;;;;;;;;;4995340;28;20344;-79
2023/10/18 05:33:03;;;;;;;12.93;10.57;;;;;;;;;;4997424;28;20741;-79
2023/10/18 05:35:35;;;;;;;13.67;10.50;;;;;;;;;;5018993;28;20190;-79
2023/10/18 05:43:12;;;;;;;14.00;11.40;;;;;;;;;;5019453;28;20694;-79
2023/10/18 05:45:42;;;;;;;12.87;10.73;;;;;;;;;;5021060;28;20183;-79
2023/10/18 05:48:17;;;;;;;13.67;10.90;;;;;;;;;;5015071;28;20192;-80
2023/10/18 05:50:49;;;;;;;14.23;11.23;;;;;;;;;;5022531;28;20192;-83
2023/10/18 05:53:19;;;;;;;14.33;10.60;;;;;;;;;;4987360;28;20277;-82
2023/10/18 05:55:52;;;;;;;14.17;10.33;;;;;;;;;;5007306;28;20210;-83
2023/10/18 05:58:25;;;;;;;14.83;11.87;;;;;;;;;;5016955;28;20206;-81
2023/10/18 06:00:55;;;;;;;15.53;11.70;;;;;;;;;;4982455;28;20218;-85
2023/10/18 06:03:22;;;;;;;14.93;11.77;;;;;;;;;;5014846;28;20195;-81
2023/10/18 06:05:53;;;;;;;15.60;12.37;;;;;;;;;;4999268;28;20191;-82
2023/10/18 06:08:22;;;;;;;16.03;12.83;;;;;;;;;;4987227;28;20183;-81
2023/10/18 06:11:06;;;;;;;16.80;12.80;;;;;;;;;;4992565;28;20179;-80
2023/10/18 06:13:36;;;;;;;15.23;12.60;;;;;;;;;;5010576;28;20334;-79
2023/10/18 06:16:18;;;;;;;14.13;11.13;;;;;;;;;;4979153;28;20187;-79
2023/10/18 06:18:46;;;;;;;14.63;11.37;;;;;;;;;;4983321;28;20230;-79
2023/10/18 06:21:18;;;;;;;14.37;11.80;;;;;;;;;;5012480;28;20215;-79
2023/10/18 06:23:54;;;;;;;17.20;13.23;;;;;;;;;;5015348;28;20225;-79
2023/10/18 06:26:33;;;;;;;13.50;11.23;;;;;;;;;;4998437;28;20685;-79
2023/10/18 06:29:08;;;;;;;14.47;11.53;;;;;;;;;;5018930;28;20589;-79
2023/10/18 06:31:40;;;;;;;14.73;11.30;;;;;;;;;;5003774;28;20588;-79
2023/10/18 06:34:11;;;;;;;16.23;11.17;;;;;;;;;;5016900;28;20188;-78
2023/10/18 06:36:39;;;;;;;14.87;11.60;;;;;;;;;;5021734;28;20175;-79
2023/10/18 06:39:06;;;;;;;14.97;11.70;;;;;;;;;;4987443;28;20559;-79
2023/10/18 06:41:33;;;;;;;14.57;11.37;;;;;;;;;;4984195;28;20270;-79
2023/10/18 06:43:59;;;;;;;14.63;12.00;;;;;;;;;;5018824;28;20198;-78
2023/10/18 06:46:30;;;;;;;14.67;11.10;;;;;;;;;;4997745;28;20194;-79
2023/10/18 06:49:00;;;;;;;12.40;10.47;;;;;;;;;;5022544;28;20272;-79
2023/10/18 06:51:33;;;;;;;12.47;10.57;;;;;;;;;;5016568;28;20187;-78
2023/10/18 06:54:03;;;;;;;15.50;12.13;;;;;;;;;;5025449;28;20209;-78
2023/10/18 06:56:32;;;;;;;17.13;11.87;;;;;;;;;;5020756;28;20276;-79
2023/10/18 06:59:06;;;;;;;15.40;11.67;;;;;;;;;;5005837;28;20232;-78
2023/10/18 07:01:32;;;;;;;13.13;11.07;;;;;;;;;;4983476;28;20202;-79
2023/10/18 07:04:00;;;;;;;12.53;10.60;;;;;;;;;;5013453;28;20186;-79
2023/10/18 07:06:29;;;;;;;11.97;10.40;;;;;;;;;;4998293;28;20252;-78
2023/10/18 07:08:56;;;;;;;15.57;10.57;;;;;;;;;;4996600;28;20618;-78
2023/10/18 07:11:23;;;;;;;14.80;11.37;;;;;;;;;;5017603;28;20187;-79
2023/10/18 07:13:50;;;;;;;13.67;10.93;;;;;;;;;;5016993;28;20206;-79
2023/10/18 07:21:45;;;;;;;15.40;12.07;;;;;;;;;;5012808;28;20187;-79
2023/10/18 07:24:11;;;;;;;14.60;11.60;;;;;;;;;;5014359;28;20275;-79
2023/10/18 07:26:37;;;;;;;14.00;11.10;;;;;;;;;;5013443;28;20632;-78
2023/10/18 07:29:06;;;;;;;13.97;11.40;;;;;;;;;;5017877;28;20674;-78
2023/10/18 07:31:38;;;;;;;13.53;11.63;;;;;;;;;;5020528;28;20182;-79
2023/10/18 07:34:07;;;;;;;13.10;10.70;;;;;;;;;;5022931;28;20174;-79
2023/10/18 07:36:38;;;;;;;14.57;10.73;;;;;;;;;;5024559;28;20305;-78
2023/10/18 07:39:05;;;;;;;13.33;10.87;;;;;;;;;;5006801;28;20655;-78
2023/10/18 07:41:34;;;;;;;13.37;10.57;;;;;;;;;;5014227;28;20198;-78
2023/10/18 07:44:01;;;;;;;12.00;10.07;;;;;;;;;;4983365;28;20214;-79
2023/10/18 07:46:28;;;;;;;12.27;10.97;;;;;;;;;;5013373;28;20191;-79
2023/10/18 07:49:03;;;;;;;11.87;10.53;;;;;;;;;;5013856;28;20264;-78
2023/10/18 07:51:32;;;;;;;11.70;10.30;;;;;;;;;;5017516;28;20556;-78
2023/10/18 07:53:59;;;;;;;14.77;11.50;;;;;;;;;;5014396;28;20663;-78
2023/10/18 07:56:29;;;;;;;13.57;11.27;;;;;;;;;;4988518;28;20183;-79
2023/10/18 07:59:26;;;;;;;14.00;10.80;;;;;;;;;;5024502;28;20186;-79
2023/10/18 08:01:52;;;;;;;13.67;10.83;;;;;;;;;;5014491;28;20651;-78
2023/10/18 08:04:20;;;;;;;10.30;9.20;;;;;;;;;;5018164;28;20181;-79
2023/10/18 08:06:48;;;;;;;10.90;9.70;;;;;;;;;;5020273;28;20194;-79
2023/10/18 08:09:20;;;;;;;13.43;9.57;;;;;;;;;;5002954;28;20300;-79
2023/10/18 08:11:47;;;;;;;11.43;9.20;;;;;;;;;;5025685;28;20187;-79
2023/10/18 08:14:16;;;;;;;12.43;9.53;;;;;;;;;;5005282;28;20187;-79
2023/10/18 08:16:51;;;;;;;11.77;9.67;;;;;;;;;;5025505;28;20662;-79
2023/10/18 08:19:22;;;;;;;12.37;9.70;;;;;;;;;;4994489;28;20197;-79
2023/10/18 08:24:34;;;;;;;11.30;9.80;;;;;;;;;;5016946;28;20194;-80
2023/10/18 08:27:10;;;;;;;11.93;9.80;;;;;;;;;;5022248;28;20274;-79
2023/10/18 08:29:41;;;;;;;10.70;9.60;;;;;;;;;;5005599;28;20290;-79
2023/10/18 08:32:17;;;;;;;11.37;9.53;;;;;;;;;;5028141;28;20199;-79
2023/10/18 08:34:48;;;;;;;10.77;9.30;;;;;;;;;;5025139;28;20661;-79
2023/10/18 08:37:14;;;;;;;11.47;9.20;;;;;;;;;;5025863;28;20599;-79
2023/10/18 08:39:52;;;;;;;10.03;8.93;;;;;;;;;;4988551;28;20273;-79
2023/10/18 08:42:19;;;;;;;11.70;9.73;;;;;;;;;;5020946;28;20833;-79
2023/10/18 08:44:46;;;;;;;10.07;8.90;;;;;;;;;;5001669;28;20298;-79
2023/10/18 08:47:17;;;;;;;10.33;8.87;;;;;;;;;;5026341;28;20277;-79
2023/10/18 08:49:50;;;;;;;11.17;9.10;;;;;;;;;;5018009;28;20207;-79
2023/10/18 08:52:20;;;;;;;13.53;10.30;;;;;;;;;;5007046;28;20205;-79
2023/10/18 08:54:47;;;;;;;13.90;10.47;;;;;;;;;;5018022;28;20214;-79
2023/10/18 08:57:15;;;;;;;11.40;9.97;;;;;;;;;;4999247;28;20245;-80
2023/10/18 08:59:48;;;;;;;12.10;10.47;;;;;;;;;;5017351;28;20197;-80
2023/10/18 09:02:24;;;;;;;13.83;10.57;;;;;;;;;;5023743;28;20214;-79
2023/10/18 09:04:54;;;;;;;11.93;9.80;;;;;;;;;;5021041;28;20183;-79
2023/10/18 09:10:13;;;;;;;10.60;9.00;;;;;;;;;;5019237;28;20752;-79
2023/10/18 09:15:28;;;;;;;9.83;8.50;;;;;;;;;;5011839;28;20201;-80
2023/10/18 09:17:55;;;;;;;11.23;8.60;;;;;;;;;;5024653;28;20178;-80
2023/10/18 09:20:25;;;;;;;10.90;9.00;;;;;;;;;;5022845;28;20190;-79
2023/10/18 09:23:01;;;;;;;10.40;8.83;;;;;;;;;;4995448;28;20203;-79
2023/10/18 09:25:47;;;;;;;9.00;7.67;;;;;;;;;;5013911;28;20693;-79
2023/10/18 09:28:33;;;;;;;10.23;8.10;;;;;;;;;;5020781;28;20189;-79
2023/10/18 09:31:09;;;;;;;9.27;7.80;;;;;;;;;;5020559;28;20197;-79
2023/10/18 09:33:36;;;;;;;8.67;6.87;;;;;;;;;;5019953;28;20583;-79
2023/10/18 09:36:05;;;;;;;9.47;7.80;;;;;;;;;;4987701;28;20249;-79
2023/10/18 09:38:44;;;;;;;9.07;7.73;;;;;;;;;;5006391;28;20182;-79
2023/10/18 09:41:10;;;;;;;11.27;7.80;;;;;;;;;;5002612;28;20305;-79
2023/10/18 09:43:36;;;;;;;8.27;7.30;;;;;;;;;;5022960;28;20219;-78
2023/10/18 09:46:03;;;;;;;10.90;8.03;;;;;;;;;;5023976;28;20215;-78
2023/10/18 09:48:33;;;;;;;8.97;8.03;;;;;;;;;;5022131;28;20301;-78
2023/10/18 09:51:09;;;;;;;9.37;7.83;;;;;;;;;;5003278;28;20249;-79
2023/10/18 09:53:42;;;;;;;11.47;7.87;;;;;;;;;;5026419;28;20249;-79
2023/10/18 09:56:13;;;;;;;8.50;7.30;;;;;;;;;;5015337;28;20187;-78
2023/10/18 09:58:44;;;;;;;8.33;6.67;;;;;;;;;;5019530;28;20529;-79
2023/10/18 10:01:14;;;;;;;6.97;6.20;;;;;;;;;;5025647;28;20175;-79
2023/10/18 10:03:51;;;;;;;6.77;5.83;;;;;;;;;;5031532;28;20221;-79
2023/10/18 10:06:21;;;;;;;7.53;5.63;;;;;;;;;;5010215;28;20240;-78
2023/10/18 10:08:50;;;;;;;7.83;6.10;;;;;;;;;;5003759;28;20219;-79
2023/10/18 10:11:19;;;;;;;7.30;6.00;;;;;;;;;;5026879;28;20182;-78
2023/10/18 10:13:49;;;;;;;6.40;5.40;;;;;;;;;;5003939;28;20665;-79
2023/10/18 10:16:18;;;;;;;7.23;5.40;;;;;;;;;;5022613;28;20718;-78
2023/10/18 10:18:47;;;;;;;6.17;4.90;;;;;;;;;;5024038;28;20674;-77
2023/10/18 10:21:15;;;;;;;6.83;5.63;;;;;;;;;;5016839;28;20212;-78
2023/10/18 10:23:42;;;;;;;6.47;5.77;;;;;;;;;;5017935;28;20202;-76
2023/10/18 10:26:16;;;;;;;6.53;5.23;;;;;;;;;;5017369;28;20194;-81
2023/10/18 10:31:46;;;;;;;5.33;4.50;;;;;;;;;;5017256;28;20190;-79
2023/10/18 10:34:19;;;;;;;6.47;5.63;;;;;;;;;;5016495;28;20651;-78
2023/10/18 10:36:47;;;;;;;6.83;5.40;;;;;;;;;;5022995;28;20216;-79
2023/10/18 10:39:30;;;;;;;8.20;5.67;;;;;;;;;;5024094;28;20261;-78
2023/10/18 10:42:08;;;;;;;5.40;4.80;;;;;;;;;;5015998;28;20202;-79
2023/10/18 10:44:54;;;;;;;5.07;4.40;;;;;;;;;;5022886;28;20209;-79
2023/10/18 10:47:30;;;;;;;4.80;4.10;;;;;;;;;;5010201;28;20194;-79
2023/10/18 10:50:00;;;;;;;5.87;4.10;;;;;;;;;;5017041;28;20613;-78
2023/10/18 10:52:30;;;;;;;5.83;4.43;;;;;;;;;;5021816;28;20250;-78
2023/10/18 10:55:04;;;;;;;5.23;4.47;;;;;;;;;;5015931;28;20674;-80
2023/10/18 10:57:43;;;;;;;5.07;4.30;;;;;;;;;;5001218;28;20680;-81
2023/10/18 11:00:22;;;;;;;5.97;4.27;;;;;;;;;;5022641;28;20187;-79
2023/10/18 11:02:53;;;;;;;5.73;3.90;;;;;;;;;;5004934;28;20623;-79
2023/10/18 11:05:21;;;;;;;5.30;3.77;;;;;;;;;;5025948;28;20373;-79
2023/10/18 11:07:47;;;;;;;5.70;4.30;;;;;;;;;;5023609;28;20191;-79
2023/10/18 11:10:17;;;;;;;6.43;4.20;;;;;;;;;;5007999;28;20207;-79
2023/10/18 11:12:45;;;;;;;4.83;3.83;;;;;;;;;;5004170;28;20198;-79
2023/10/18 11:15:18;;;;;;;4.80;3.23;;;;;;;;;;5014625;28;20175;-79
2023/10/18 11:17:45;;;;;;;4.00;3.37;;;;;;;;;;5030432;28;20185;-79
2023/10/18 11:20:19;;;;;;;5.13;3.10;;;;;;;;;;5029721;28;20212;-79
2023/10/18 11:22:47;;;;;;;4.20;3.33;;;;;;;;;;5031412;28;20206;-79
2023/10/18 11:25:19;;;;;;;3.47;3.13;;;;;;;;;;5024587;28;20572;-79
2023/10/18 11:27:45;;;;;;;4.17;2.90;;;;;;;;;;5029119;28;20194;-79
2023/10/18 11:30:22;;;;;;;3.13;2.67;;;;;;;;;;5023464;28;20214;-78
2023/10/18 11:32:54;;;;;;;4.03;2.80;;;;;;;;;;5028524;28;20210;-77
2023/10/18 11:35:27;;;;;;;3.00;2.70;;;;;;;;;;5025095;28;20182;-81
2023/10/18 11:37:54;;;;;;;3.93;2.50;;;;;;;;;;5019783;28;20208;-79
2023/10/18 11:40:29;;;;;;;4.00;2.90;;;;;;;;;;5026360;28;20685;-79
2023/10/18 11:43:04;;;;;;;4.37;3.20;;;;;;;;;;5019222;28;20240;-79
2023/10/18 11:45:30;;;;;;;5.77;3.17;;;;;;;;;;5018643;28;20202;-79
2023/10/18 11:47:59;;;;;;;3.57;2.80;;;;;;;;;;4990565;28;20257;-79
2023/10/18 11:50:38;;;;;;;3.60;2.40;;;;;;;;;;5027089;28;20214;-79
2023/10/18 11:53:12;;;;;;;3.13;2.37;;;;;;;;;;5024887;28;20209;-79
2023/10/18 11:55:58;;;;;;;3.20;2.27;;;;;;;;;;5005857;28;20182;-79
2023/10/18 11:58:31;;;;;;;4.13;2.60;;;;;;;;;;5014413;28;20251;-79
2023/10/18 12:01:00;;;;;;;3.53;2.57;;;;;;;;;;5000044;28;20561;-79
2023/10/18 12:03:27;;;;;;;3.73;2.50;;;;;;;;;;5023157;28;20214;-79
2023/10/18 12:05:55;;;;;;;2.60;2.27;;;;;;;;;;5033349;28;20240;-79
2023/10/18 12:08:23;;;;;;;3.37;2.27;;;;;;;;;;5004717;28;20194;-79
2023/10/18 12:10:50;;;;;;;3.37;2.60;;;;;;;;;;5018517;28;20190;-79
2023/10/18 12:13:20;;;;;;;3.20;2.30;;;;;;;;;;5025696;28;20206;-79
2023/10/18 12:15:47;;;;;;;3.97;2.23;;;;;;;;;;5021964;28;20267;-79
2023/10/18 12:18:16;;;;;;;3.00;2.60;;;;;;;;;;5020926;28;20195;-79
2023/10/18 12:20:46;;;;;;;2.97;2.20;;;;;;;;;;5020167;28;20176;-79
2023/10/18 12:23:13;;;;;;;2.87;2.50;;;;;;;;;;5021429;28;20203;-79
2023/10/18 12:25:42;;;;;;;5.40;2.57;;;;;;;;;;5021396;28;20657;-79
2023/10/18 12:28:12;;;;;;;3.50;2.60;;;;;;;;;;5016429;28;20823;-79
2023/10/18 12:30:51;;;;;;;3.07;2.43;;;;;;;;;;5019741;28;20229;-79
2023/10/18 12:33:27;;;;;;;2.80;2.30;;;;;;;;;;5003585;28;20213;-79
2023/10/18 12:35:59;;;;;;;2.87;2.57;;;;;;;;;;5014771;28;20269;-79
2023/10/18 12:38:32;;;;;;;5.33;2.60;;;;;;;;;;4999527;28;20662;-80
2023/10/18 12:41:05;;;;;;;3.43;2.40;;;;;;;;;;5004091;28;20179;-79
2023/10/18 12:43:32;;;;;;;5.00;3.20;;;;;;;;;;5018905;28;20206;-81
2023/10/18 12:46:00;;;;;;;5.53;3.73;;;;;;;;;;4995682;28;20197;-84
2023/10/18 12:48:27;;;;;;;4.17;3.17;;;;;;;;;;5024568;28;20218;-82
2023/10/18 12:50:54;;;;;;;3.83;2.80;;;;;;;;;;5024728;28;20178;-84
2023/10/18 12:58:47;;;;;;;3.27;2.23;;;;;;;;;;5022127;28;20186;-80
2023/10/18 13:01:22;;;;;;;4.53;2.30;;;;;;;;;;5026017;28;20182;-82
2023/10/18 13:03:57;;;;;;;2.50;2.30;;;;;;;;;;5000387;28;20219;-81
2023/10/18 13:06:35;;;;;;;4.20;2.50;;;;;;;;;;5003494;28;20190;-80
2023/10/18 13:14:11;;;;;;;3.30;2.30;;;;;;;;;;5017685;28;20702;-81
2023/10/18 13:16:37;;;;;;;2.80;2.47;;;;;;;;;;4992378;28;20217;-81
2023/10/18 13:19:04;;;;;;;4.20;2.70;;;;;;;;;;5030200;28;20199;-81
2023/10/18 13:21:30;;;;;;;3.03;2.60;;;;;;;;;;5024728;28;20274;-81
2023/10/18 13:23:57;;;;;;;3.93;2.50;;;;;;;;;;5018991;28;20199;-81
2023/10/18 13:26:28;;;;;;;5.10;2.97;;;;;;;;;;5023662;28;20725;-80
2023/10/18 13:29:00;;;;;;;3.17;2.73;;;;;;;;;;5020994;28;20286;-81
2023/10/18 13:31:30;;;;;;;5.90;2.80;;;;;;;;;;5005445;28;20273;-81
2023/10/18 13:33:57;;;;;;;3.33;2.47;;;;;;;;;;5011194;28;20257;-80
2023/10/18 13:36:23;;;;;;;2.93;2.57;;;;;;;;;;5031425;28;20182;-80
2023/10/18 13:38:50;;;;;;;5.63;3.07;;;;;;;;;;5012636;28;20237;-80
2023/10/18 13:41:19;;;;;;;4.80;2.90;;;;;;;;;;5010620;28;20556;-77
2023/10/18 13:43:45;;;;;;;3.17;2.60;;;;;;;;;;5026060;28;20294;-79
2023/10/18 13:46:18;;;;;;;3.50;2.83;;;;;;;;;;4998717;28;20667;-77
2023/10/18 13:48:46;;;;;;;3.73;3.10;;;;;;;;;;5007438;28;20221;-77
2023/10/18 13:51:13;;;;;;;3.17;2.80;;;;;;;;;;5024359;28;20281;-80
2023/10/18 13:53:41;;;;;;;3.80;2.70;;;;;;;;;;5026595;28;20344;-77
2023/10/18 13:56:11;;;;;;;4.20;2.90;;;;;;;;;;5008654;28;20262;-77
2023/10/18 13:58:38;;;;;;;3.80;2.90;;;;;;;;;;5022921;28;20186;-77
2023/10/18 14:01:05;;;;;;;2.83;2.50;;;;;;;;;;5024850;28;20193;-78
2023/10/18 14:03:37;;;;;;;4.90;2.70;;;;;;;;;;5027986;28;20210;-77
2023/10/18 14:06:07;;;;;;;4.33;3.60;;;;;;;;;;5020878;28;20179;-77
2023/10/18 14:08:33;;;;;;;3.23;2.90;;;;;;;;;;5027711;28;20551;-77
2023/10/18 14:10:59;;;;;;;4.93;3.07;;;;;;;;;;5023587;28;20659;-77
2023/10/18 14:13:27;;;;;;;2.90;2.57;;;;;;;;;;5014681;28;20234;-77
2023/10/18 14:15:53;;;;;;;5.20;2.97;;;;;;;;;;5020510;28;20183;-78
2023/10/18 14:18:20;;;;;;;3.80;2.77;;;;;;;;;;5023764;28;20183;-77
2023/10/18 14:20:52;;;;;;;3.10;2.77;;;;;;;;;;5026482;28;20309;-77
2023/10/18 14:23:23;;;;;;;3.10;2.70;;;;;;;;;;5027759;28;20275;-77
2023/10/18 14:25:53;;;;;;;3.70;2.97;;;;;;;;;;5016064;28;20187;-77
2023/10/18 14:28:19;;;;;;;4.90;3.10;;;;;;;;;;5022972;28;20190;-80
2023/10/18 14:30:46;;;;;;;4.03;2.77;;;;;;;;;;5025012;28;20267;-79
2023/10/18 14:33:12;;;;;;;2.97;2.63;;;;;;;;;;5026012;28;20701;-77
2023/10/18 14:35:39;;;;;;;3.40;2.83;;;;;;;;;;5013557;28;20799;-77
2023/10/18 14:38:08;;;;;;;3.57;2.73;;;;;;;;;;5014252;28;20727;-79
2023/10/18 14:40:37;;;;;;;3.90;2.83;;;;;;;;;;5031245;28;20175;-77
2023/10/18 14:43:04;;;;;;;4.27;2.63;;;;;;;;;;5028294;28;20693;-78
2023/10/18 14:45:34;;;;;;;3.60;2.60;;;;;;;;;;5028465;28;20202;-77
2023/10/18 14:48:00;;;;;;;5.80;2.80;;;;;;;;;;4989767;28;20194;-77
2023/10/18 14:50:27;;;;;;;4.30;2.80;;;;;;;;;;5032270;28;20210;-79
2023/10/18 14:52:53;;;;;;;5.53;3.13;;;;;;;;;;5028268;28;20655;-80
2023/10/18 14:55:19;;;;;;;3.67;3.07;;;;;;;;;;5031498;28;20179;-80
2023/10/18 14:57:45;;;;;;;6.03;3.33;;;;;;;;;;5009991;28;20273;-80
2023/10/18 15:00:12;;;;;;;5.73;3.13;;;;;;;;;;5010117;28;20190;-78
2023/10/18 15:02:39;;;;;;;4.13;3.33;;;;;;;;;;5023256;28;20690;-77
2023/10/18 15:05:09;;;;;;;4.90;3.20;;;;;;;;;;5023653;28;20297;-77
2023/10/18 15:07:37;;;;;;;3.57;3.00;;;;;;;;;;5031969;28;20237;-77
2023/10/18 15:10:07;;;;;;;3.30;2.77;;;;;;;;;;5023357;28;20215;-79
2023/10/18 15:12:34;;;;;;;3.87;2.97;;;;;;;;;;5022308;28;20579;-80
2023/10/18 15:15:00;;;;;;;4.90;3.50;;;;;;;;;;5024158;28;20174;-78
2023/10/18 15:17:26;;;;;;;6.90;2.87;;;;;;;;;;5023585;28;20182;-78
2023/10/18 15:19:53;;;;;;;5.43;3.20;;;;;;;;;;4996797;28;20259;-78
2023/10/18 15:22:20;;;;;;;4.00;3.17;;;;;;;;;;5014336;28;20217;-77
2023/10/18 15:24:49;;;;;;;3.60;3.03;;;;;;;;;;5023227;28;20540;-78
2023/10/18 15:27:15;;;;;;;4.10;3.40;;;;;;;;;;5023816;28;20732;-78
2023/10/18 15:29:42;;;;;;;4.67;3.90;;;;;;;;;;5021084;28;20236;-77
2023/10/18 15:32:12;;;;;;;4.27;3.67;;;;;;;;;;5001356;28;20295;-78
2023/10/18 15:34:38;;;;;;;4.20;3.60;;;;;;;;;;5000195;28;20600;-78
2023/10/18 15:37:06;;;;;;;4.53;2.97;;;;;;;;;;5013858;28;20230;-77
2023/10/18 15:39:32;;;;;;;4.77;3.10;;;;;;;;;;5019496;28;20192;-78